Home > Products > Valid Products > TAF

000
FTUS46 KLOX 240500
TAFWJF
TAF
KWJF 240532Z 2406/2506 28012KT P6SM SCT200
     FM240700 29006KT P6SM SCT200
     FM242100 26012KT P6SM SCT200
     FM242300 27015G25KT P6SM SKC
     FM250400 27015KT P6SM SKC=



000
FTUS46 KLOX 240500
TAFBUR
TAF
KBUR 240532Z 2406/2506 VRB03KT P6SM SCT200
     FM242000 17008KT P6SM SCT200
     FM250300 VRB03KT P6SM FEW200=



000
FTUS46 KLOX 240500
TAFPRB
TAF
KPRB 240532Z 2406/2506 30010KT P6SM SCT200
     FM241100 VRB03KT P6SM FEW200
     FM242200 32010KT P6SM BKN200=



000
FTUS46 KLOX 240500
TAFPMD
TAF
KPMD 240532Z 2406/2506 28010KT P6SM SCT200
     FM241000 VRB03KT P6SM SCT200
     FM242000 27012KT P6SM SCT200
     FM242300 27012G22KT P6SM SKC
     FM250300 27012KT P6SM SKC=



000
FTUS46 KLOX 240500
TAFSMX
TAF
KSMX 240532Z 2406/2506 VRB03KT P6SM SCT200
     FM241600 32012KT P6SM SCT200
     FM242000 31020G30KT P6SM BKN200
     FM250200 32012KT P6SM SCT200
     FM250400 VRB03KT P6SM FEW200=



000
FTUS46 KLOX 240500
TAFVNY
TAF
KVNY 240532Z 2406/2506 VRB03KT P6SM SCT200
     FM241400 36006KT P6SM SCT200
     FM242100 14008KT P6SM SCT200
     FM250300 VRB03KT P6SM FEW200=



000
FTUS46 KLOX 240500
TAFLAX
TAF
KLAX 240532Z 2406/2512 VRB03KT P6SM SCT200
     FM241700 25008KT P6SM SCT200
     FM250300 VRB03KT P6SM FEW200
     FM250900 VRB03KT P6SM BKN020=



000
FTUS46 KLOX 240500
TAFLGB
TAF
KLGB 240532Z 2406/2506 VRB03KT P6SM SCT200
     FM241600 18006KT P6SM SCT200
     FM242300 29010KT P6SM SCT200
     FM250300 VRB03KT P6SM FEW200=



000
FTUS46 KLOX 240500
TAFSBA
TAF
KSBA 240532Z 2406/2506 02008KT P6SM SCT200
     FM241000 VRB03KT P6SM SCT200
     FM241600 16006KT P6SM BKN200
     FM250100 VRB03KT P6SM FEW200=



000
FTUS46 KLOX 240500
TAFSBP
TAF
KSBP 240532Z 2406/2506 28006KT P6SM SCT200
     FM241600 32012KT P6SM SCT200
     FM242000 31020G30KT P6SM BKN200
     FM250200 32012KT P6SM SCT200
     FM250500 30006KT P6SM SCT200=



000
FTUS46 KLOX 240300 CCA
TAFSMX
TAF COR
KSMX 240340Z 2404/2424 30010KT P6SM SCT200
     FM240600 30005KT 6SM BR SCT004 SCT200
     FM240900 VRB03KT P6SM SCT200
     FM241600 32012KT P6SM SCT200
     FM242000 31019G27KT P6SM BKN200=



000
FTUS46 KLOX 240300 AAB
TAFSMX
TAF AMD
KSMX 240337Z 2404/2424 30010KT P6SM SCT200
     FM240600 30005KT P6SM SCT200
     FM241000 VRB03KT 6SM BR SCT004 SCT200
     FM241600 32012KT P6SM SCT200
     FM242000 31019G27KT P6SM BKN200=



000
FTUS46 KLOX 240300 AAA
TAFLAX
TAF AMD
KLAX 240336Z 2404/2506 26006KT P6SM BKN200
     FM240500 VRB03KT P6SM SCT200
     FM241000 07003KT 6SM BR SCT008 SCT200
     FM241700 25005KT P6SM SCT200
     FM242100 26010KT P6SM SCT200
     FM250400 26006KT P6SM BKN200=



000
FTUS46 KLOX 240200 AAA
TAFWJF
TAF AMD
KWJF 240202Z 2402/2424 28015G25KT P6SM BKN200
     FM240300 28012KT P6SM SCT200
     FM240700 29006KT P6SM SCT200
     FM242100 26012KT P6SM SCT200=



000
FTUS46 KLOX 240200 AAA
TAFPMD
TAF AMD
KPMD 240201Z 2402/2424 30015G25KT P6SM BKN200
     FM240300 29012KT P6SM SCT200
     FM240500 VRB06KT P6SM SCT200
     FM242200 27012KT P6SM SCT200=



000
FTUS46 KLOX 240200 AAA
TAFPRB
TAF AMD
KPRB 240200Z 2402/2424 32012G18KT P6SM SCT200
     FM240500 33006KT P6SM SCT200
     FM242000 34008KT P6SM BKN200=



000
FTUS46 KLOX 240200 AAA
TAFSMX
TAF AMD
KSMX 240200Z 2402/2424 31014G20KT P6SM SCT200
     FM240300 32012KT P6SM SCT200
     FM240600 32005KT P6SM SCT200
     FM241600 32012KT P6SM SCT200
     FM242000 31019G27KT P6SM BKN200=



000
FTUS46 KLOX 232300 RRA
TAFSBP
TAF
KSBP 232350Z 2400/2424 32020G28KT P6SM SCT200
     FM240300 32012KT P6SM SCT200
     FM240500 32007KT P6SM SCT200
     FM241600 32012KT P6SM SCT200
     FM242000 31020G28KT P6SM BKN200=



000
FTUS46 KLOX 232300 RRA
TAFSMX
TAF
KSMX 232350Z 2400/2424 31020G30KT P6SM SCT200
     FM240300 32012KT P6SM SCT200
     FM240600 32005KT P6SM SCT200
     FM241600 32012KT P6SM SCT200
     FM242000 31019G27KT P6SM BKN200=



000
FTUS46 KLOX 232300 RRA
TAFLGB
TAF
KLGB 232350Z 2400/2424 31011KT P6SM BKN200
     FM240400 VRB03KT P6SM SCT200
     FM241000 VRB03KT 6SM BR BKN010 BKN200
     FM241600 18006KT P6SM SCT200
     FM242300 29010KT P6SM SCT200=



000
FTUS46 KLOX 232300 RRA
TAFWJF
TAF
KWJF 232350Z 2400/2424 28012KT P6SM BKN200
     FM240400 29006KT P6SM SCT200
     FM242100 26012KT P6SM SCT200=



000
FTUS46 KLOX 232300 RRA
TAFPMD
TAF
KPMD 232350Z 2400/2424 32010KT P6SM BKN200
     FM240500 VRB06KT P6SM SCT200
     FM242200 27012KT P6SM SCT200=



000
FTUS46 KLOX 232300 RRA
TAFBUR
TAF
KBUR 232350Z 2400/2424 18008KT P6SM BKN200
     FM240300 VRB03KT P6SM SCT200
     FM242000 17009KT P6SM SCT200=



000
FTUS46 KLOX 232300 RRA
TAFSBA
TAF
KSBA 232350Z 2400/2424 16007KT P6SM SCT200
     FM240200 34006KT P6SM SCT200
      TEMPO 2403/2405 34015G25KT
     FM240800 08004KT P6SM SCT200
     FM241600 16006KT P6SM BKN200=



000
FTUS46 KLOX 232300 RRA
TAFLAX
TAF
KLAX 232350Z 2400/2506 26013KT P6SM BKN200
     FM240500 VRB03KT P6SM SCT200
     FM241000 07003KT 6SM BR SCT008 SCT200
     FM241700 25005KT P6SM SCT200
     FM242100 26010KT P6SM SCT200
     FM250400 26006KT P6SM BKN200=



000
FTUS46 KLOX 232300 RRA
TAFPRB
TAF
KPRB 232350Z 2400/2424 32011KT P6SM SCT200
     FM240500 33006KT P6SM SCT200
     FM242000 34008KT P6SM BKN200=



000
FTUS46 KLOX 232300 RRA
TAFVNY
TAF
KVNY 232350Z 2400/2424 15008KT P6SM BKN200
     FM240200 34006KT P6SM SCT200
     FM240600 VRB03KT P6SM SCT200
     FM241400 36005KT P6SM SCT200
     FM241800 02008KT P6SM SCT200
     FM242100 14008KT P6SM SCT200=



000
FTUS46 KLOX 232000 AAA
TAFVNY
TAF AMD
KVNY 232052Z 2321/2418 16010KT P6SM SCT200
     FM240100 30008KT P6SM SCT200
     FM240300 32006KT P6SM SCT200
     FM240600 VRB03KT P6SM SCT200=



000
FTUS46 KLOX 232000 AAA
TAFPMD
TAF AMD
KPMD 232042Z 2321/2418 28005KT P6SM SCT200
     FM240000 30010KT P6SM SCT200
     FM240600 VRB05KT P6SM SCT200=



000
FTUS46 KLOX 232000 AAA
TAFLAX
TAF AMD
KLAX 232041Z 2321/2424 26013G20KT P6SM FEW030 BKN250
     FM240100 26012KT P6SM SCT250
     FM240500 VRB03KT P6SM SCT250
     FM241000 06003KT 5SM BR BKN008
     FM241700 25005KT 6SM HZ FEW008
     FM242100 26010KT P6SM FEW250=



000
FTUS46 KLOX 231700 RRA
TAFPMD
TAF
KPMD 231747Z 2318/2418 28010KT P6SM SCT200
     FM232000 32010G18KT P6SM SCT200
     FM240300 28010KT P6SM SCT200
     FM240600 VRB05KT P6SM SCT200=



000
FTUS46 KLOX 231700 RRA
TAFVNY
TAF
KVNY 231747Z 2318/2418 35009G15KT P6SM SCT200
     FM232300 32010KT P6SM SCT200
     FM240300 34006KT P6SM SCT200
     FM240600 VRB03KT P6SM SCT200=



000
FTUS46 KLOX 231700 RRA
TAFBUR
TAF
KBUR 231747Z 2318/2418 VRB05KT P6SM SCT200
     FM232100 18008KT P6SM SCT200
     FM240300 VRB03KT P6SM SCT200=



000
FTUS46 KLOX 231700 RRA
TAFWJF
TAF
KWJF 231747Z 2318/2418 30010KT P6SM SCT200
     FM232200 28015G22KT P6SM SCT200
     FM240400 28012KT P6SM SCT200
     FM241200 29005KT P6SM SCT200=



000
FTUS46 KLOX 231700 RRA
TAFLGB
TAF
KLGB 231747Z 2318/2418 VRB05KT P6SM BKN025
     FM232000 22007KT P6SM SCT200
     FM232300 29011KT P6SM SCT200
     FM240400 VRB03KT P6SM SCT200
     FM241000 VRB03KT 5SM BR BKN010=



000
FTUS46 KLOX 231700 RRA
TAFLAX
TAF
KLAX 231747Z 2318/2424 26006KT P6SM FEW027 BKN250
     FM231900 27013KT P6SM SCT250
     FM240500 VRB03KT P6SM SCT250
     FM241000 06003KT 5SM BR BKN008
     FM241700 25005KT 6SM HZ FEW008
     FM242100 26010KT P6SM FEW250=



000
FTUS46 KLOX 231700 RRA
TAFSBA
TAF
KSBA 231747Z 2318/2418 VRB05KT P6SM BKN200
     FM232000 21007KT P6SM SCT200
     FM240200 VRB04KT P6SM SCT200
     FM241700 16006KT P6SM SKC=



000
FTUS46 KLOX 231700 RRA
TAFSBP
TAF
KSBP 231747Z 2318/2418 33012KT P6SM SCT200
     FM232000 32020G28KT P6SM SCT200
     FM240200 32012KT P6SM SCT200
     FM240600 31006KT P6SM SCT250
     FM241500 32008KT P6SM SCT250=



000
FTUS46 KLOX 231700 RRA
TAFPRB
TAF
KPRB 231747Z 2318/2418 32008KT P6SM SKC
     FM232200 35008KT P6SM SKC
     FM240100 32011KT P6SM SKC
     FM240800 VRB03KT P6SM SKC=



000
FTUS46 KLOX 231700 RRA
TAFSMX
TAF
KSMX 231747Z 2318/2418 30014KT P6SM SCT200
     FM232000 31020G30KT P6SM SCT200
     FM240300 32012KT P6SM SCT200
     FM240600 32005KT P6SM SCT250
     FM241500 32008G15KT P6SM FEW250=



000
FTUS46 KLOX 231600 AAA
TAFLGB
TAF AMD
KLGB 231655Z 2317/2412 VRB03KT P6SM SCT020 BKN025
     FM232000 19007KT P6SM SCT200
     FM232300 29012KT P6SM SCT200
     FM240400 VRB03KT P6SM SCT200
     FM241000 VRB03KT 5SM BR BKN008=



000
FTUS46 KLOX 231500 AAA
TAFLAX
TAF AMD
KLAX 231524Z 2315/2418 VRB05KT P6SM FEW020 BKN250
     FM231600 26006KT P6SM SCT200
     FM231900 27012KT P6SM SCT200
     FM240400 VRB03KT P6SM SCT200
     FM241000 VRB03KT 3SM BR BKN006
     FM241700 26006KT 6SM HZ FEW008=



000
FTUS46 KLOX 231400 AAA
TAFWJF
TAF AMD
KWJF 231406Z 2314/2412 27012G22KT P6SM SCT200
     FM231500 30010KT P6SM SCT200
     FM232200 28015G25KT P6SM SCT200
     FM240300 28012KT P6SM SKC
     FM240600 28009KT P6SM SKC=



000
FTUS46 KLOX 231400 AAA
TAFPMD
TAF AMD
KPMD 231404Z 2314/2412 29015G25KT P6SM SCT200
     FM232000 30012G18KT P6SM SCT200
     FM240400 29009KT P6SM SCT200
     FM240600 VRB03KT P6SM SCT200=



000
FTUS46 KLOX 231300 AAA
TAFSBP
TAF AMD
KSBP 231306Z 2313/2412 33012KT P6SM SCT200
     FM232000 32020G30KT P6SM SCT200
     FM240200 32012KT P6SM SCT200
     FM240600 32006KT P6SM SCT200=



000
FTUS46 KLOX 231300 AAA
TAFSMX
TAF AMD
KSMX 231306Z 2313/2412 30012KT P6SM SCT200
     FM232000 31022G32KT P6SM SCT200
     FM240200 32012KT P6SM SCT200
     FM240600 VRB03KT P6SM SCT200=



000
FTUS46 KLOX 231100
TAFLAX
TAF
KLAX 231123Z 2312/2418 VRB03KT P6SM SCT200
     FM231600 26006KT P6SM SCT200
     FM231900 27012KT P6SM SCT200
     FM240400 VRB03KT P6SM SCT200
     FM241000 VRB03KT 3SM BR BKN006
     FM241700 26006KT 6SM HZ FEW008=



000
FTUS46 KLOX 231100
TAFWJF
TAF
KWJF 231123Z 2312/2412 28022G32KT P6SM SCT200
     FM231500 30010KT P6SM SKC
     FM232200 28015G25KT P6SM SKC
     FM240300 28012KT P6SM SKC=



000
FTUS46 KLOX 231100
TAFLGB
TAF
KLGB 231123Z 2312/2412 VRB03KT P6SM BKN025
     FM231400 VRB03KT P6SM SCT200
     FM232000 19007KT P6SM SCT200
     FM232300 29012KT P6SM SCT200
     FM240400 VRB03KT P6SM SCT200
     FM241000 VRB03KT 5SM BR BKN008=



000
FTUS46 KLOX 231100
TAFSMX
TAF
KSMX 231123Z 2312/2412 VRB03KT P6SM SCT200
     FM231600 31012KT P6SM SCT200
     FM232000 31022G32KT P6SM SCT200
     FM240200 32012KT P6SM SCT200
     FM240600 VRB03KT P6SM SCT200=



000
FTUS46 KLOX 231100
TAFBUR
TAF
KBUR 231123Z 2312/2412 VRB03KT P6SM SCT200
     FM232100 17008KT P6SM SCT200
     FM240300 VRB03KT P6SM SCT200=



000
FTUS46 KLOX 231100
TAFSBP
TAF
KSBP 231123Z 2312/2412 01006KT P6SM SCT200
     FM231600 31012KT P6SM SCT200
     FM232000 32020G30KT P6SM SCT200
     FM240200 32012KT P6SM SCT200
     FM240600 32006KT P6SM SCT200=



000
FTUS46 KLOX 231100
TAFSBA
TAF
KSBA 231123Z 2312/2412 34007KT P6SM SCT200
     FM231600 VRB03KT P6SM SCT200
     FM232000 24010KT P6SM SCT200
     FM240200 VRB03KT P6SM SCT200=



000
FTUS46 KLOX 231100
TAFPMD
TAF
KPMD 231123Z 2312/2412 28020G30KT P6SM SCT200
     FM231500 30010KT P6SM SCT200
     FM232100 29012G18KT P6SM SCT200
     FM240200 28007KT P6SM SCT200=



000
FTUS46 KLOX 231100
TAFPRB
TAF
KPRB 231123Z 2312/2412 35006KT P6SM SCT200
     FM232300 33012KT P6SM SCT200
     FM240700 VRB03KT P6SM SCT200=



000
FTUS46 KLOX 231100
TAFVNY
TAF
KVNY 231123Z 2312/2412 35012G20KT P6SM SCT200
     FM232200 30006KT P6SM SCT200
     FM240200 VRB03KT P6SM SCT200=



000
FTUS46 KLOX 231000 AAB
TAFBUR
TAF AMD
KBUR 231015Z 2310/2406 VRB03KT P6SM SKC
     FM232100 17008KT P6SM SKC
     FM240300 VRB03KT P6SM SKC=



000
FTUS46 KLOX 231000 AAA
TAFWJF
TAF AMD
KWJF 231015Z 2310/2406 27025G35KT P6SM SKC
     FM231200 28015KT P6SM SKC
     FM231500 30010KT P6SM SKC
     FM232200 28015G25KT P6SM SKC
     FM240300 28015KT P6SM SKC=



000
FTUS46 KLOX 231000 AAA
TAFPMD
TAF AMD
KPMD 231015Z 2310/2406 28025G35KT P6SM SKC
     FM231200 28015KT P6SM SKC
     FM231500 30008KT P6SM SKC
     FM232100 29012G18KT P6SM SKC
     FM240200 28015KT P6SM SKC=



000
FTUS46 KLOX 231000 AAB
TAFVNY
TAF AMD
KVNY 231015Z 2310/2406 35012G20KT P6SM SKC
     FM232200 30006KT P6SM SKC
     FM240200 VRB03KT P6SM SKC=



000
FTUS46 KLOX 231000 AAA
TAFLAX
TAF AMD
KLAX 231000Z 2310/2412 VRB03KT P6SM SKC
     FM231800 27012KT P6SM SKC
     FM240400 26006KT P6SM SKC
     FM241000 VRB03KT P6SM SKC=



000
FTUS46 KLOX 230700 AAA
TAFBUR
TAF AMD
KBUR 230721Z 2307/2406 35012KT P6SM SKC
     FM231400 VRB03KT P6SM SKC
     FM232100 17008KT P6SM SKC
     FM240300 VRB03KT P6SM SKC=



000
FTUS46 KLOX 230500 AAA
TAFVNY
TAF AMD
KVNY 230559Z 2306/2406 35012G22KT P6SM SKC
     FM231000 36010KT P6SM SKC
     FM231400 35012G18KT P6SM SKC
     FM232200 30006KT P6SM SKC
     FM240200 VRB03KT P6SM SKC=



000
FTUS46 KLOX 230500
TAFPMD
TAF
KPMD 230529Z 2306/2406 28015G25KT P6SM SKC
     FM230800 28015KT P6SM SKC
     FM231000 30008KT P6SM SKC
     FM232100 29012G18KT P6SM SKC
     FM240200 28015KT P6SM SKC=



000
FTUS46 KLOX 230500
TAFPRB
TAF
KPRB 230529Z 2306/2406 32015G25KT P6SM SKC
     FM231000 32006KT P6SM SKC
     FM231800 34012KT P6SM SKC=



000
FTUS46 KLOX 230500
TAFVNY
TAF
KVNY 230529Z 2306/2406 35010KT P6SM SKC
     FM231400 35012G18KT P6SM SKC
     FM232200 30006KT P6SM SKC
     FM240200 VRB03KT P6SM SKC=



000
FTUS46 KLOX 230500
TAFSBA
TAF
KSBA 230529Z 2306/2406 34008KT P6SM SKC
     FM231300 VRB03KT P6SM SKC
     FM231600 16005KT P6SM SKC
     FM232000 24010KT P6SM SKC
     FM240200 34008KT P6SM SKC=



000
FTUS46 KLOX 230500
TAFLAX
TAF
KLAX 230529Z 2306/2412 27008KT P6SM SKC
     FM231000 VRB03KT P6SM SKC
     FM231800 27012KT P6SM SKC
     FM240400 26006KT P6SM SKC
     FM241000 VRB03KT P6SM SKC=



000
FTUS46 KLOX 230500
TAFLGB
TAF
KLGB 230529Z 2306/2406 VRB03KT P6SM SKC
     FM231600 19006KT P6SM SKC
     FM232200 29010KT P6SM SKC
     FM240400 VRB03KT P6SM SKC=



000
FTUS46 KLOX 230500
TAFSMX
TAF
KSMX 230529Z 2306/2406 VRB03KT P6SM SKC
     FM231600 31012G20KT P6SM SKC
     FM231900 30022G32KT P6SM SKC
     FM240200 34012KT P6SM SKC
     FM240500 VRB03KT P6SM SKC=



000
FTUS46 KLOX 230500
TAFBUR
TAF
KBUR 230529Z 2306/2406 VRB03KT P6SM SKC
     FM232100 17008KT P6SM SKC
     FM240300 VRB03KT P6SM SKC=



000
FTUS46 KLOX 230500
TAFWJF
TAF
KWJF 230529Z 2306/2406 28018KT P6SM SKC
     FM231200 31010KT P6SM SKC
     FM232200 28015G25KT P6SM SKC
     FM240300 28015KT P6SM SKC=



000
FTUS46 KLOX 230500
TAFSBP
TAF
KSBP 230529Z 2306/2406 32008KT P6SM SKC
     FM231600 32012G18KT P6SM SKC
     FM232000 32020G30KT P6SM SKC
     FM240200 34012KT P6SM SKC=



000
FTUS46 KLOX 230300 AAB
TAFSBA
TAF AMD
KSBA 230337Z 2304/2324 36012KT P6SM SKC
     FM230800 36005KT P6SM SKC
     FM231300 VRB03KT P6SM SKC
     FM231600 16005KT P6SM SKC
     FM232000 24010KT P6SM SKC=



000
FTUS46 KLOX 230200 AAB
TAFLAX
TAF AMD
KLAX 230256Z 2303/2406 26012G18KT P6SM SKC
     FM230400 28005KT P6SM SKC WS020/36025KT
     FM231000 VRB04KT P6SM SKC
     FM231800 27010KT P6SM SKC
     FM240400 26005KT P6SM SKC=



000
FTUS46 KLOX 230100 AAA
TAFLAX
TAF AMD
KLAX 230117Z 2301/2406 26012G18KT P6SM SKC
     FM230400 28005KT P6SM SKC WS020/36025KT
     FM231000 VRB04KT P6SM SKC
     FM231800 27010KT P6SM SKC
     FM240400 26005KT P6SM SKC=



000
FTUS46 KLOX 230000 AAA
TAFVNY
TAF AMD
KVNY 230025Z 2300/2324 16008KT P6SM SKC
     FM230400 35010G18KT P6SM SKC WS015/36040KT
     FM231400 35012G20KT P6SM SKC
     FM231800 01015G25KT P6SM SKC
     FM232200 VRB06KT P6SM SKC=



000
FTUS46 KLOX 230000 AAA
TAFSBA
TAF AMD
KSBA 230024Z 2300/2324 33015G25KT P6SM FEW040
      TEMPO 2300/2301 15010KT
     FM230300 33012KT P6SM SKC
     FM230900 36005KT P6SM SKC
     FM231300 VRB03KT P6SM SKC
     FM231600 16005KT P6SM SKC
     FM232000 24010KT P6SM SKC=



000
FTUS46 KLOX 230000 CCA
TAFLGB
TAF COR
KLGB 230003Z 2300/2324 29010KT P6SM SKC
     FM230600 VRB05KT P6SM SKC
     FM231100 VRB03KT 6SM BR SCT007
     FM231600 19006KT P6SM SKC
     FM232200 29010KT P6SM SKC=



000
FTUS46 KLOX 222300 RRA
TAFSMX
TAF
KSMX 222355Z 2300/2324 31025G33KT P6SM SKC
     FM230200 31015G25KT P6SM SKC
     FM230400 31010KT P6SM SKC
     FM230700 31006KT P6SM SKC
     FM231600 31012G20KT P6SM SKC
     FM231900 30022G30KT P6SM SKC=



000
FTUS46 KLOX 222300 RRA
TAFLGB
TAF
KLGB 222355Z 2300/2324 29010KT P6SM SKC
     FM230600 VRB05KT P6SM SKC
     FM231800 20006KT P6SM SKC
     FM232200 29010KT P6SM SKC=



000
FTUS46 KLOX 222300 RRA
TAFSBA
TAF
KSBA 222355Z 2300/2324 25014G21KT P6SM SKC
     FM230300 33012KT P6SM SKC
     FM230900 36005KT P6SM SKC
     FM231300 VRB03KT P6SM SKC
     FM231600 16005KT P6SM SKC
     FM232000 24010KT P6SM SKC=



000
FTUS46 KLOX 222300 RRA
TAFLAX
TAF
KLAX 222355Z 2300/2406 27012G18KT P6SM SKC
     FM230400 28005KT P6SM SKC WS020/36025KT
     FM231000 VRB04KT P6SM SKC
     FM231800 27010KT P6SM SKC
     FM240400 26005KT P6SM SKC=



000
FTUS46 KLOX 222300 RRA
TAFPMD
TAF
KPMD 222355Z 2300/2324 29027G35KT 6SM BLDU FEW001 FEW060
     FM230200 29022G30KT P6SM SKC
     FM230400 28015G20KT P6SM SKC
     FM230800 28014KT P6SM SKC
     FM231000 30008KT P6SM SKC
     FM232100 29012G18KT P6SM SKC=



000
FTUS46 KLOX 222300 RRA
TAFBUR
TAF
KBUR 222355Z 2300/2324 16010KT P6SM SKC
     FM230400 35005KT P6SM SKC WS015/36035KT
     FM231000 VRB03KT P6SM SKC
     FM232100 17008KT P6SM SKC=



000
FTUS46 KLOX 222300 RRA
TAFPRB
TAF
KPRB 222355Z 2300/2324 33017G25KT P6SM SKC
     FM230400 32012G23KT P6SM SKC
     FM230900 32010KT P6SM SKC
     FM231200 34008KT P6SM SKC=



000
FTUS46 KLOX 222300 RRA
TAFWJF
TAF
KWJF 222355Z 2300/2324 28025G33KT 6SM BLDU FEW001 FEW060
     FM230200 28018G26KT P6SM SKC
      TEMPO 2303/2305 28014KT
     FM230800 28014KT P6SM SKC
     FM231200 31010KT P6SM SKC
     FM231700 33008KT P6SM SKC
     FM232300 28012G18KT P6SM SKC=



000
FTUS46 KLOX 222300 RRA
TAFVNY
TAF
KVNY 222355Z 2300/2324 17013KT P6SM SKC
     FM230400 35010G18KT P6SM SKC WS015/36040KT
     FM231400 35012G20KT P6SM SKC
     FM231800 01015G25KT P6SM SKC
     FM232200 VRB06KT P6SM SKC=



000
FTUS46 KLOX 222300 RRA
TAFSBP
TAF
KSBP 222355Z 2300/2324 31021G29KT P6SM SKC
     FM230200 31014G22KT P6SM SKC
     FM230400 32010KT P6SM SKC
     FM230800 32008KT P6SM SKC
     FM231600 32010G18KT P6SM SKC
     FM232000 32022G30KT P6SM SKC=



000
FTUS46 KLOX 222200 AAA
TAFPRB
TAF AMD
KPRB 222244Z 2223/2318 33017G25KT P6SM SKC
     FM230400 32012G23KT P6SM SKC
     FM230900 32010KT P6SM SKC
     FM231200 36005KT P6SM SKC
     FM231600 33009G15KT P6SM SKC=



000
FTUS46 KLOX 222000 AAB
TAFLAX
TAF AMD
KLAX 222043Z 2221/2324 27015KT P6SM SCT030
     FM222200 27012G18KT P6SM FEW150
     FM230400 29005KT P6SM SKC WS020/36025KT
     FM231300 VRB04KT P6SM SKC
     FM231800 26008KT P6SM SKC=



000
FTUS46 KLOX 222000 AAA
TAFVNY
TAF AMD
KVNY 222012Z 2220/2318 13009KT P6SM BKN045
     FM222100 17013KT P6SM SCT150
     FM230300 27009KT P6SM SKC
     FM230700 36008G16KT P6SM SKC
     FM231400 35009KT P6SM SKC=



000
FTUS46 KLOX 222000 AAA
TAFSBA
TAF AMD
KSBA 222010Z 2220/2318 14015KT P6SM SCT150
     FM222200 21014G21KT P6SM SKC
     FM230200 28012KT P6SM SKC
     FM231000 36005KT P6SM SKC
     FM231400 VRB03KT P6SM SKC=



000
FTUS46 KLOX 222000 AAA
TAFSBP
TAF AMD
KSBP 222009Z 2220/2318 30014G20KT P6SM SKC
     FM222200 31022G32KT P6SM SCT150
     FM230300 31015G25KT P6SM SKC
     FM230600 32005KT P6SM SKC
     FM231500 32008G15KT P6SM SKC=



000
FTUS46 KLOX 221900 AAA
TAFLAX
TAF AMD
KLAX 221927Z 2219/2324 29016G22KT P6SM SCT030
     FM222200 27018KT P6SM FEW150
     FM230400 31005KT P6SM SKC WS020/36025KT
     FM231300 VRB04KT P6SM SKC
     FM231800 26008KT P6SM SKC=



000
FTUS46 KLOX 221900 AAA
TAFLGB
TAF AMD
KLGB 221927Z 2219/2318 19008KT P6SM BKN035
     FM222000 21009KT P6SM SCT035
     FM222200 24011KT P6SM SKC
     FM230200 29009KT P6SM SKC
     FM230600 VRB05KT P6SM SKC=



000
FTUS46 KLOX 221700
TAFSBP
TAF
KSBP 221737Z 2218/2318 34014G20KT P6SM SCT018
     FM222200 32022G32KT P6SM SCT150
     FM230300 31015G25KT P6SM SKC
     FM230600 32005KT P6SM SKC
     FM231500 32008G15KT P6SM SKC=



000
FTUS46 KLOX 221700
TAFPMD
TAF
KPMD 221737Z 2218/2318 28018KT P6SM SCT150
     FM222000 28025G35KT 6SM BLDU FEW001 SCT150
     FM230300 28020G28KT P6SM SKC
     FM230500 27015G22KT P6SM SKC
     FM230900 28014KT P6SM SKC
     FM231300 30008KT P6SM SKC=



000
FTUS46 KLOX 221700
TAFPRB
TAF
KPRB 221737Z 2218/2318 33017G25KT P6SM SKC
     FM222000 33020G28KT P6SM SCT150
     FM230400 32012G23KT P6SM SKC
     FM230900 32010KT P6SM SKC
     FM231200 36005KT P6SM SKC
     FM231600 33009G15KT P6SM SKC=



000
FTUS46 KLOX 221700
TAFWJF
TAF
KWJF 221737Z 2218/2318 25020G30KT P6SM SCT150
     FM222100 26030G38KT 6SM BLDU FEW001 SCT150
     FM230200 26022G32KT P6SM SKC
     FM230500 27016G24KT P6SM SKC
     FM231300 29013KT P6SM SKC=



000
FTUS46 KLOX 221700
TAFBUR
TAF
KBUR 221737Z 2218/2318 VRB05KT P6SM BKN022 BKN028
     FM221900 16009KT P6SM BKN030
     FM222000 19012KT P6SM SCT150
     FM230400 33007KT P6SM SKC
     FM231000 VRB03KT P6SM SKC=



000
FTUS46 KLOX 221700
TAFSMX
TAF
KSMX 221737Z 2218/2318 30013KT P6SM SCT020
     FM221900 31015G22KT P6SM SCT035
     FM222200 31025G35KT P6SM SCT150
     FM230200 31015G25KT P6SM SKC
     FM230600 33006KT P6SM SKC
     FM231500 33009G16KT P6SM SKC=



000
FTUS46 KLOX 221700
TAFSBA
TAF
KSBA 221737Z 2218/2318 VRB05KT P6SM FEW040
     FM221900 21010KT P6SM SCT150
     FM222100 26014G21KT P6SM SKC
     FM230200 34012KT P6SM SKC
     FM231000 36005KT P6SM SKC
     FM231400 VRB03KT P6SM SKC=



000
FTUS46 KLOX 221700
TAFLGB
TAF
KLGB 221737Z 2218/2318 19005KT P6SM BKN030
     FM222000 21009KT P6SM SCT035
     FM222200 24011KT P6SM SKC
     FM230200 29009KT P6SM SKC
     FM230600 VRB05KT P6SM SKC=



000
FTUS46 KLOX 221700
TAFVNY
TAF
KVNY 221737Z 2218/2318 VRB05KT 6SM HZ BKN022
     FM221900 16009KT P6SM BKN025
     FM222100 17013KT P6SM SCT150
     FM230300 31010KT P6SM SKC
     FM230700 36008G16KT P6SM SKC
     FM231400 35009KT P6SM SKC=



000
FTUS46 KLOX 221700
TAFLAX
TAF
KLAX 221737Z 2218/2324 26006KT P6SM SCT027 BKN150
     FM221900 26010KT P6SM SCT030
     FM222200 27013G18KT P6SM FEW150
     FM230400 31005KT P6SM SKC WS020/36025KT
     FM231300 VRB04KT P6SM SKC
     FM231800 26008KT P6SM SKC=



000
FTUS46 KLOX 221600 AAA
TAFSMX
TAF AMD
KSMX 221604Z 2216/2312 33008KT P6SM BKN011 BKN020
     FM221800 31014G22KT P6SM SCT035
     FM222000 31025G35KT P6SM SCT150
     FM230200 31015G25KT P6SM SKC
     FM230500 33010KT P6SM SKC=



000
FTUS46 KLOX 221600 AAA
TAFSBP
TAF AMD
KSBP 221603Z 2216/2312 31010KT P6SM BKN012 BKN020
     FM221800 32014G20KT P6SM SCT035
     FM222000 32022G32KT P6SM SCT150
     FM230200 31015G25KT P6SM SKC
     FM230500 32010KT P6SM SKC=



000
FTUS46 KLOX 221600 AAC
TAFPRB
TAF AMD
KPRB 221602Z 2216/2312 33015G25KT P6SM SKC
     FM222000 33020G28KT P6SM SCT150
     FM230400 32012G23KT P6SM SKC
     FM230900 32008KT P6SM SKC=



000
FTUS46 KLOX 221400 AAA
TAFLAX
TAF AMD
KLAX 221441Z 2215/2318 26006KT P6SM SCT012 BKN018
     FM221700 25010KT P6SM BKN021
     FM222100 27014KT P6SM FEW150
     FM230200 27008KT P6SM SKC
     FM230600 VRB03KT P6SM SKC=



000
FTUS46 KLOX 221300 AAB
TAFPRB
TAF AMD
KPRB 221322Z 2213/2312 VRB03KT P6SM SCT015
     FM221600 32008KT P6SM FEW015 SCT150
     FM221800 33012G22KT P6SM SCT150
     FM222200 33018G28KT P6SM SCT150
     FM230400 32012KT P6SM SKC=



000
FTUS46 KLOX 221300 AAA
TAFPRB
TAF AMD
KPRB 221315Z 2213/2312 VRB03KT P6SM BKN015
     FM221600 32008KT P6SM FEW015 SCT150
     FM221800 33012G22KT P6SM SCT150
     FM222200 33018G28KT P6SM SCT150
     FM230400 32012KT P6SM SKC=



000
FTUS46 KLOX 221300 AAA
TAFLGB
TAF AMD
KLGB 221300Z 2213/2312 VRB03KT P6SM OVC025
     FM221700 19007KT P6SM SCT150
     FM222300 29012KT P6SM FEW150
     FM230400 VRB03KT P6SM SKC=



000
FTUS46 KLOX 221200 AAA
TAFSBA
TAF AMD
KSBA 221259Z 2213/2312 VRB03KT P6SM SCT004 SCT150
     FM221500 33006KT P6SM SCT150
     FM222000 26014G22KT P6SM SCT150
     FM230200 34012KT P6SM SKC
     FM231000 VRB03KT P6SM SKC=



000
FTUS46 KLOX 221200 CCA
TAFVNY
TAF COR
KVNY 221213Z 2212/2312 VRB03KT P6SM OVC010
     FM221700 14007KT P6SM SCT150
     FM222000 16012KT P6SM SCT150
     FM230300 35010KT P6SM SKC=



000
FTUS46 KLOX 221100
TAFLAX
TAF
KLAX 221133Z 2212/2318 VRB03KT P6SM BKN010 OVC150
     FM221700 25010KT P6SM FEW015
     FM222100 27014KT P6SM FEW150
     FM230200 27008KT P6SM SKC
     FM230600 VRB03KT P6SM SKC=



000
FTUS46 KLOX 221100
TAFBUR
TAF
KBUR 221133Z 2212/2312 VRB03KT 6SM BR OVC010
     FM221500 13006KT 6SM HZ BKN010
     FM221700 18010KT P6SM SCT150
     FM222000 19012KT P6SM SCT150
     FM230300 VRB03KT P6SM SKC=



000
FTUS46 KLOX 221100
TAFSBA
TAF
KSBA 221133Z 2212/2312 VRB03KT 6SM BR OVC007
     FM221400 33006KT P6SM FEW010
     FM222000 26014G22KT P6SM SCT150
     FM230200 34012KT P6SM SKC
     FM231000 VRB03KT P6SM SKC=



000
FTUS46 KLOX 221100
TAFLGB
TAF
KLGB 221133Z 2212/2312 VRB03KT P6SM OVC015
     FM221700 19007KT P6SM SCT150
     FM222300 29012KT P6SM FEW150
     FM230400 VRB03KT P6SM SKC=



000
FTUS46 KLOX 221100
TAFSMX
TAF
KSMX 221133Z 2212/2312 33007KT 4SM BR BKN015
     FM221600 31014G20KT P6SM SCT035
     FM221900 31022G24KT P6SM SCT150
     FM230200 31015G25KT P6SM SKC
     FM230500 33010KT P6SM SKC=



000
FTUS46 KLOX 221100
TAFPRB
TAF
KPRB 221133Z 2212/2312 30008KT P6SM SCT150
     FM221600 33012G22KT P6SM SCT150
     FM222200 33018G28KT P6SM SCT150
     FM230400 32012KT P6SM SKC=



000
FTUS46 KLOX 221100
TAFVNY
TAF
KVNY 221133Z 2212/2312 VRB03KT 6SM BR OVC008
     FM221500 VRB03KT P6SM BKN010
     FM221700 14007KT P6SM SCT150
     FM222000 16012KT P6SM SCT150
     FM230300 35010KT P6SM SKC=



000
FTUS46 KLOX 221100
TAFWJF
TAF
KWJF 221133Z 2212/2312 25010KT P6SM BKN150
     FM221500 26016KT P6SM SCT150
     FM221800 26020G30KT P6SM SCT150
     FM222100 25028G38KT 6SM BLDU FEW001 SCT150
     FM230100 26022G32KT P6SM SKC
     FM230500 27018KT P6SM SKC=



000
FTUS46 KLOX 221100
TAFSBP
TAF
KSBP 221133Z 2212/2312 32008KT P6SM BKN015
     FM221600 32014G20KT P6SM SCT035
     FM221900 32022G32KT P6SM SCT150
     FM230200 31015G25KT P6SM SKC
     FM230500 32010KT P6SM SKC=



000
FTUS46 KLOX 221100
TAFPMD
TAF
KPMD 221133Z 2212/2312 31008KT P6SM BKN150
     FM221500 26014KT P6SM SCT150
     FM221800 26018G28KT P6SM SCT150
     FM222100 25025G35KT 6SM BLDU FEW001 SCT150
     FM230100 26018G28KT P6SM SKC
     FM230500 27014KT P6SM SKC=



000
FTUS46 KLOX 221000 AAC
TAFLAX
TAF AMD
KLAX 221012Z 2210/2312 VRB03KT P6SM OVC008
     FM221200 VRB03KT P6SM OVC012
     FM221700 26012KT P6SM SCT025
     FM230400 27006KT P6SM SKC=



000
FTUS46 KLOX 220900 AAA
TAFSBP
TAF AMD
KSBP 220914Z 2209/2306 VRB03KT P6SM BKN015
     FM221200 33010KT P6SM BKN025
     FM221600 32014G20KT P6SM SCT050
     FM221900 32022G34KT P6SM FEW050
     FM230200 31015G25KT P6SM SKC=



000
FTUS46 KLOX 220800 AAB
TAFLAX
TAF AMD
KLAX 220840Z 2209/2312 VRB03KT P6SM OVC008
     FM221000 VRB03KT P6SM OVC012
     FM221700 26012KT P6SM SCT025
     FM230400 27006KT P6SM SKC=



000
FTUS46 KLOX 220800 AAA
TAFVNY
TAF AMD
KVNY 220804Z 2208/2306 VRB03KT P6SM SCT010
     FM220900 VRB03KT 4SM BR OVC007
     FM221300 VRB03KT 5SM BR OVC012
     FM221600 13006KT P6SM SCT015
     FM221900 14012KT P6SM SKC
     FM230200 VRB03KT P6SM SKC=



000
FTUS46 KLOX 220800 AAA
TAFLAX
TAF AMD
KLAX 220804Z 2208/2312 VRB03KT P6SM OVC008
     FM221000 VRB03KT P6SM OVC012
     FM221700 26012KT P6SM SCT025
     FM230400 27006KT P6SM SKC=



000
FTUS46 KLOX 220800 AAA
TAFBUR
TAF AMD
KBUR 220804Z 2208/2306 VRB03KT P6SM SCT010
     FM220900 VRB03KT 5SM BR OVC008
     FM221300 VRB03KT 6SM BR OVC012
     FM221600 15008KT P6SM SCT015
     FM221900 19012KT P6SM SKC
     FM230500 VRB03KT P6SM SKC=



000
FTUS46 KLOX 220600 CCA
TAFLGB
TAF COR
KLGB 220600Z 2206/2306 VRB03KT P6SM OVC015
     FM221700 19008KT P6SM SCT015
     FM222300 28010KT P6SM SKC
     FM230400 VRB03KT P6SM SKC=



000
FTUS46 KLOX 220500
TAFVNY
TAF
KVNY 220523Z 2206/2306 VRB03KT P6SM BKN200
     FM220800 VRB03KT 4SM BR OVC007
     FM221300 VRB03KT 5SM BR OVC012
     FM221600 13006KT P6SM SCT015
     FM221900 14012KT P6SM SKC
     FM230200 VRB03KT P6SM SKC=



000
FTUS46 KLOX 220500
TAFLGB
TAF
KLGB 220523Z 2206/2306 VRB03KT P6SM BKN200
     FM220800 VRB03KT P6SM OVC015
     FM221700 19008KT P6SM SCT015
     FM222300 28010KT P6SM SKC
     FM230400 VRB03KT P6SM SKC=



000
FTUS46 KLOX 220500
TAFWJF
TAF
KWJF 220523Z 2206/2306 24014KT P6SM BKN200
     FM221600 24022G30KT 6SM BLDU FEW001 BKN200
     FM221900 25028G38KT 6SM BLDU FEW001 SCT200
     FM230400 26022G32KT P6SM SKC=



000
FTUS46 KLOX 220500
TAFLAX
TAF
KLAX 220523Z 2206/2312 25006KT 6SM BR OVC009
     FM220800 VRB03KT P6SM OVC012
     FM221700 26012KT P6SM SCT025
     FM230400 27006KT P6SM SKC=



000
FTUS46 KLOX 220500
TAFSBA
TAF
KSBA 220523Z 2206/2306 VRB03KT 4SM BR BKN002
     FM221000 VRB03KT 5SM BR OVC007
     FM221400 33006KT P6SM BKN012
     FM221600 30010KT P6SM SCT012 SCT040
     FM222000 26014G22KT P6SM FEW040
     FM230200 34012KT P6SM SKC=



000
FTUS46 KLOX 220500
TAFSMX
TAF
KSMX 220523Z 2206/2306 VRB03KT P6SM SCT015 BKN150
     FM221100 33010KT P6SM VCSH BKN025 BKN050
     FM221500 31014G20KT P6SM SCT050
     FM221900 31022G34KT P6SM FEW050
     FM230200 31015G25KT P6SM SKC=



000
FTUS46 KLOX 220500
TAFPRB
TAF
KPRB 220523Z 2206/2306 30011KT P6SM BKN100 BKN150
     FM221100 30008KT P6SM VCSH SCT025 BKN050
     FM221600 33012G22KT P6SM SCT050
     FM230000 33018G28KT P6SM SCT050=



000
FTUS46 KLOX 220500
TAFPMD
TAF
KPMD 220523Z 2206/2306 27010KT P6SM BKN200
     FM221400 25018KT P6SM BKN200
     FM221700 25022G30KT 6SM BLDU FEW001 BKN200
     FM222000 25028G38KT 6SM BLDU FEW001 SCT200
     FM222300 26022G32KT P6SM SKC=



000
FTUS46 KLOX 220500
TAFSBP
TAF
KSBP 220523Z 2206/2306 32010KT P6SM BKN150 BKN200
     FM221000 33010KT P6SM VCSH BKN025 BKN050
     FM221600 32014G20KT P6SM SCT050
     FM221900 32022G34KT P6SM FEW050
     FM230200 31015G25KT P6SM SKC=



000
FTUS46 KLOX 220500
TAFBUR
TAF
KBUR 220523Z 2206/2306 VRB03KT P6SM BKN200
     FM220800 VRB03KT 5SM BR OVC008
     FM221300 VRB03KT 6SM BR OVC012
     FM221600 15008KT P6SM SCT015
     FM221900 19012KT P6SM SKC
     FM230500 VRB03KT P6SM SKC=



000
FTUS46 KLOX 220500 AAA
TAFLGB
TAF AMD
KLGB 220503Z 2205/2224 VRB03KT P6SM BKN200
     FM221000 VRB03KT P6SM OVC015
     FM221700 19008KT P6SM SCT019
     FM222300 28010KT P6SM SKC=



000
FTUS46 KLOX 220400 AAB
TAFSBP
TAF AMD
KSBP 220420Z 2204/2224 32010KT P6SM BKN150 BKN200
     FM221000 33010KT P6SM VCSH BKN025 BKN050
     FM221600 32014G20KT P6SM SCT050
     FM221900 32022G34KT P6SM FEW050=



000
FTUS46 KLOX 220300 AAC
TAFSMX
TAF AMD
KSMX 220355Z 2204/2224 27006KT 6SM BR SCT015 BKN150
     FM221100 33010KT P6SM VCSH BKN025 BKN050
     FM221500 31014G20KT P6SM SCT050
     FM221900 31022G34KT P6SM FEW050=



000
FTUS46 KLOX 220300 AAC
TAFLAX
TAF AMD
KLAX 220330Z 2204/2306 25008KT 6SM BR OVC009
     FM220700 VRB03KT P6SM OVC012
     FM221400 25006KT P6SM OVC017
     FM221600 25010KT P6SM BKN021
     FM221900 26014G20KT P6SM SCT025
     FM230400 27010KT P6SM SKC=



000
FTUS46 KLOX 220300 AAA
TAFPMD
TAF AMD
KPMD 220330Z 2204/2224 26010KT P6SM BKN200
     FM221400 25016KT P6SM BKN200
     FM221700 25022G30KT 6SM BLDU FEW001 BKN200
     FM222000 25028G38KT 6SM BLDU FEW001 SCT200
     FM222300 26025G33KT P6SM SKC=



000
FTUS46 KLOX 220300 AAA
TAFPRB
TAF AMD
KPRB 220315Z 2203/2224 30011KT P6SM BKN100 BKN150
     FM221100 30008KT P6SM VCSH SCT025 BKN050
     FM221600 33014G22KT P6SM SCT050=



000
FTUS46 KLOX 220300 AAB
TAFSBA
TAF AMD
KSBA 220313Z 2203/2224 22008KT 5SM BR OVC005
      TEMPO 2203/2205 1/2SM FG VV002
     FM220700 VRB03KT 6SM BR OVC009
     FM221300 33006KT P6SM BKN012
     FM221600 30010KT P6SM SCT012 SCT040
     FM222000 26014G22KT P6SM FEW040=



000
FTUS46 KLOX 220300 AAB
TAFSMX
TAF AMD
KSMX 220312Z 2203/2224 32009KT 6SM BR BKN012
     FM221100 33010KT P6SM VCSH BKN025 BKN050
     FM221500 31014G20KT P6SM SCT050
     FM221900 31022G34KT P6SM FEW050=



000
FTUS46 KLOX 220200 AAB
TAFLAX
TAF AMD
KLAX 220207Z 2202/2306 27010KT P6SM BKN009 BKN200
     FM220400 26008KT 6SM BR OVC009
     FM220700 VRB03KT P6SM OVC012
     FM221400 25006KT P6SM OVC017
     FM221600 25010KT P6SM BKN021
     FM221900 26014G20KT P6SM SCT025
     FM230400 27010KT P6SM SKC=



000
FTUS46 KLOX 220200 AAA
TAFSBP
TAF AMD
KSBP 220205Z 2202/2224 32010KT P6SM BKN150 BKN200
     FM220430 32006KT 5SM BR BKN008
     FM221000 33010KT P6SM VCSH BKN025 BKN050
     FM221600 32014G20KT P6SM SCT050
     FM221900 32022G34KT P6SM FEW050=



000
FTUS46 KLOX 220200 AAA
TAFSMX
TAF AMD
KSMX 220203Z 2202/2224 32012KT 5SM BR BKN008
     FM221100 33010KT P6SM VCSH BKN025 BKN050
     FM221500 31014G20KT P6SM SCT050
     FM221900 31022G34KT P6SM FEW050=



000
FTUS46 KLOX 220200 AAA
TAFLAX
TAF AMD
KLAX 220200Z 2202/2306 27012KT P6SM FEW009 BKN200
     FM220400 26008KT 6SM BR OVC009
     FM220700 VRB03KT P6SM OVC012
     FM221400 25006KT P6SM OVC017
     FM221600 25010KT P6SM BKN021
     FM221900 26014G20KT P6SM SCT025
     FM230400 27010KT P6SM SKC=



000
FTUS46 KLOX 220100 AAA
TAFSBA
TAF AMD
KSBA 220152Z 2202/2224 22008KT 5SM BR BKN005 BKN200
      TEMPO 2202/2203 1SM BR BKN002
     FM220400 15004KT 5SM BR OVC005
     FM220700 VRB03KT 6SM BR OVC009
     FM221300 33006KT P6SM BKN012
     FM221600 30010KT P6SM SCT012 SCT040
     FM222000 26014G22KT P6SM FEW040=



000
FTUS46 KLOX 212300 RRA
TAFSMX
TAF
KSMX 212342Z 2200/2224 32010KT P6SM BKN150 BKN200
     FM220300 32006KT P6SM BKN100 BKN150
     FM221100 33010KT P6SM VCSH BKN025 BKN050
     FM221500 31014G20KT P6SM SCT050
     FM221900 31022G34KT P6SM FEW050=



000
FTUS46 KLOX 212300 RRA
TAFPMD
TAF
KPMD 212342Z 2200/2224 24018G26KT P6SM BKN200
     FM220300 24010KT P6SM BKN200
     FM221400 25016KT P6SM BKN200
     FM221700 25022G30KT 6SM BLDU FEW001 BKN200
     FM222000 25028G38KT 6SM BLDU FEW001 SCT200
     FM222300 26025G33KT P6SM SKC=



000
FTUS46 KLOX 212300 RRA
TAFLAX
TAF
KLAX 212342Z 2200/2306 27012KT P6SM FEW009 BKN200
     FM220200 26008KT 6SM BR OVC009
     FM220700 VRB03KT P6SM OVC012
     FM221400 25006KT P6SM OVC017
     FM221600 25010KT P6SM BKN021
     FM221900 26014G20KT P6SM SCT025
     FM230400 27010KT P6SM SKC=



000
FTUS46 KLOX 212300 RRA
TAFWJF
TAF
KWJF 212342Z 2200/2224 23018G26KT P6SM BKN200
     FM220300 24012KT P6SM BKN200
     FM221600 24022G30KT 6SM BLDU FEW001 BKN200
     FM221900 25028G38KT 6SM BLDU FEW001 SCT200
     FM222200 27028G36KT 6SM BLDU FEW001=



000
FTUS46 KLOX 212300 RRA
TAFSBA
TAF
KSBA 212342Z 2200/2224 22008KT 5SM BR BKN005 BKN200
     FM220200 15004KT 5SM BR OVC005
     FM220700 VRB03KT 6SM BR OVC009
     FM221300 33006KT P6SM BKN012
     FM221600 30010KT P6SM SCT012 SCT040
     FM222000 26014G22KT P6SM FEW040=



000
FTUS46 KLOX 212300 RRA
TAFPRB
TAF
KPRB 212342Z 2200/2224 VRB06KT P6SM BKN150 BKN200
     FM220400 29008KT P6SM BKN100 BKN150
     FM221100 30008KT P6SM VCSH SCT025 BKN050
     FM221600 33014G22KT P6SM SCT050=



000
FTUS46 KLOX 212300 RRA
TAFLGB
TAF
KLGB 212342Z 2200/2224 30008KT P6SM BKN200
     FM220500 VRB03KT P6SM OVC011
     FM220700 VRB03KT P6SM OVC014
     FM221400 14004KT P6SM BKN019
     FM221700 19008KT P6SM SCT019
     FM222300 28010KT P6SM SKC=



000
FTUS46 KLOX 212300 RRA
TAFSBP
TAF
KSBP 212342Z 2200/2224 29009KT P6SM BKN150 BKN200
     FM220300 32006KT P6SM BKN100 BKN150
     FM221000 33010KT P6SM VCSH BKN025 BKN050
     FM221600 32014G20KT P6SM SCT050
     FM221900 32022G34KT P6SM FEW050=



000
FTUS46 KLOX 212300 RRA
TAFBUR
TAF
KBUR 212342Z 2200/2224 18010KT P6SM BKN200
     FM220300 15006KT P6SM BKN200
     FM220700 14005KT 5SM BR OVC008
     FM221300 VRB03KT 6SM BR OVC013
     FM221600 15008KT P6SM SCT017
     FM221900 19012KT P6SM SKC=



000
FTUS46 KLOX 212300 RRA
TAFVNY
TAF
KVNY 212342Z 2200/2224 14010KT P6SM BKN200
     FM220300 13005KT P6SM BKN200
     FM220800 12004KT 4SM BR OVC007
     FM221300 VRB03KT 5SM BR OVC012
     FM221600 13007KT P6SM SCT017
     FM221900 16012KT P6SM SKC=



000
FTUS46 KLOX 212200 AAC
TAFSBA
TAF AMD
KSBA 212230Z 2123/2218 24008KT P6SM FEW006 BKN200
     FM220200 VRB03KT 4SM BR OVC006
     FM221200 VRB03KT 5SM BR OVC010
     FM221600 31007KT P6SM SCT010=



000
FTUS46 KLOX 212200 AAA
TAFSBP
TAF AMD
KSBP 212216Z 2122/2218 32006KT P6SM BKN200
     FM212300 31012KT P6SM BKN150
     FM220300 33006KT P6SM SCT050 BKN100
     FM220900 33006KT P6SM BKN025 BKN100
     FM221400 31014KT P6SM SCT025 BKN120=



000
FTUS46 KLOX 212100 AAA
TAFPRB
TAF AMD
KPRB 212156Z 2122/2218 VRB03KT P6SM BKN200
     FM220000 21012KT P6SM BKN150
     FM220400 29008KT P6SM SCT050 BKN100
     FM221200 33012KT P6SM BKN120=



000
FTUS46 KLOX 212100 AAA
TAFSMX
TAF AMD
KSMX 212156Z 2122/2218 32006KT P6SM BKN200
     FM212300 31010KT P6SM BKN150
     FM220300 33006KT P6SM SCT050 BKN100
     FM220700 33006KT P6SM BKN025 BKN100
     FM221400 31014KT P6SM SCT025 BKN120=



000
FTUS46 KLOX 212100 AAB
TAFSBA
TAF AMD
KSBA 212112Z 2121/2218 24007KT 6SM BR BKN008
     FM212300 24008KT P6SM FEW006 BKN200
     FM220200 VRB03KT 4SM BR OVC006
     FM221200 VRB03KT 5SM BR OVC010
     FM221600 31007KT P6SM SCT010=



000
FTUS46 KLOX 212000 AAC
TAFLAX
TAF AMD
KLAX 212057Z 2121/2224 27012KT P6SM FEW008 BKN200
     FM220400 VRB03KT 5SM BR OVC008
     FM221000 VRB03KT 5SM BR OVC010
     FM221700 25007KT P6SM BKN015
     FM222000 26015KT P6SM FEW015=



000
FTUS46 KLOX 212000 AAB
TAFLAX
TAF AMD
KLAX 212041Z 2121/2224 27012KT 5SM HZ FEW008
     FM220400 VRB03KT 5SM BR OVC008
     FM221000 VRB03KT 5SM BR OVC010
     FM221700 25007KT P6SM BKN015
     FM222000 26015KT P6SM FEW015=



000
FTUS46 KLOX 212000 AAA
TAFLAX
TAF AMD
KLAX 212003Z 2120/2224 27012KT 5SM HZ FEW008
     FM220400 VRB03KT 5SM BR OVC008
     FM221000 VRB03KT 5SM BR OVC010
     FM221700 25007KT P6SM BKN015
     FM222000 26015KT P6SM FEW015=



000
FTUS46 KLOX 211900 AAA
TAFSBA
TAF AMD
KSBA 211911Z 2119/2218 14008KT 6SM BR SCT002
     FM212100 24008KT P6SM FEW006 BKN200
     FM220200 VRB03KT 4SM BR OVC006
     FM221200 VRB03KT 5SM BR OVC010
     FM221600 31007KT P6SM SCT010=



000
FTUS46 KLOX 211700
TAFVNY
TAF
KVNY 211725Z 2118/2218 VRB03KT P6SM SKC
     FM212000 15008KT P6SM BKN200
     FM220300 VRB03KT P6SM BKN200
     FM220800 VRB03KT 4SM BR OVC006
     FM221600 VRB03KT 6SM HZ BKN010=



000
FTUS46 KLOX 211700
TAFSBP
TAF
KSBP 211725Z 2118/2218 32006KT P6SM BKN200
     FM212000 31012KT P6SM BKN150
     FM220300 33006KT P6SM SCT050 BKN100
     FM220900 33006KT P6SM BKN025 BKN100
     FM221400 31014KT P6SM SCT025 BKN120=



000
FTUS46 KLOX 211700
TAFSBA
TAF
KSBA 211725Z 2118/2218 14006KT 1SM BR OVC002
     FM212000 17006KT 6SM HZ FEW006 BKN200
     FM212200 24008KT P6SM FEW006 BKN200
     FM220200 VRB03KT 4SM BR OVC006
     FM221200 VRB03KT 5SM BR OVC010
     FM221600 31007KT P6SM SCT010=



000
FTUS46 KLOX 211700
TAFPRB
TAF
KPRB 211725Z 2118/2218 VRB03KT P6SM BKN200
     FM212100 21012KT P6SM BKN150
     FM220200 29008KT P6SM SCT050 BKN100
     FM221200 33012KT P6SM BKN120=



000
FTUS46 KLOX 211700
TAFWJF
TAF
KWJF 211725Z 2118/2218 25010KT P6SM SKC
     FM212100 24020G30KT P6SM BKN200
     FM220300 24014KT P6SM BKN200
     FM221400 24018KT P6SM BKN200=



000
FTUS46 KLOX 211700
TAFPMD
TAF
KPMD 211725Z 2118/2218 25008KT P6SM SKC
     FM212100 24015G25KT P6SM BKN200
     FM220300 24010KT P6SM BKN200
     FM221400 24015KT P6SM BKN200=



000
FTUS46 KLOX 211700
TAFSMX
TAF
KSMX 211725Z 2118/2218 32006KT P6SM BKN200
     FM212000 31012KT P6SM BKN150
     FM220300 33006KT P6SM SCT050 BKN100
     FM220700 33006KT P6SM BKN025 BKN100
     FM221400 31014KT P6SM SCT025 BKN120=



000
FTUS46 KLOX 211700
TAFLGB
TAF
KLGB 211725Z 2118/2218 19007KT P6SM SKC
     FM220000 30008KT P6SM BKN200
     FM220400 VRB03KT P6SM BKN200
     FM220600 VRB03KT P6SM OVC010
     FM221700 17006KT P6SM BKN015=



000
FTUS46 KLOX 211700
TAFLAX
TAF
KLAX 211725Z 2118/2224 VRB03KT 4SM HZ FEW008
     FM212000 26012KT 6SM HZ FEW010 BKN200
     FM220400 VRB03KT 5SM BR OVC008
     FM221000 VRB03KT 5SM BR OVC010
     FM221700 25007KT P6SM BKN015
     FM222000 26015KT P6SM FEW015=



000
FTUS46 KLOX 211700
TAFBUR
TAF
KBUR 211725Z 2118/2218 VRB03KT P6SM SKC
     FM212000 17008KT P6SM BKN200
     FM220100 13006KT P6SM BKN200
     FM220500 VRB03KT P6SM BKN200
     FM220800 VRB03KT 4SM BR OVC006
     FM221600 VRB03KT 6SM HZ BKN010=



000
FTUS46 KLOX 211600 AAD
TAFLAX
TAF AMD
KLAX 211614Z 2116/2218 VRB03KT 2SM BR VCFG SCT006
     FM211700 VRB03KT 4SM HZ FEW008
     FM211900 26010KT P6SM SKC
     FM220500 VRB03KT P6SM SKC
     FM221300 VRB03KT P6SM OVC006
     FM221700 VRB03KT P6SM SCT008=



000
FTUS46 KLOX 211400 AAC
TAFLAX
TAF AMD
KLAX 211441Z 2115/2218 VRB03KT 2SM BR VCFG FEW001 OVC006
     FM211600 VRB03KT 5SM HZ BKN008
     FM211700 26010KT P6SM SKC
     FM220500 VRB03KT P6SM SKC
     FM221300 VRB03KT P6SM OVC006
     FM221700 VRB03KT P6SM SCT008=



000
FTUS46 KLOX 211400 AAB
TAFSBA
TAF AMD
KSBA 211424Z 2114/2212 VRB03KT P6SM VCFG BKN004
     FM211700 16006KT P6SM SKC
     FM212100 24006KT P6SM SKC
     FM220200 VRB03KT P6SM SKC=



000
FTUS46 KLOX 211300 AAA
TAFLGB
TAF AMD
KLGB 211359Z 2114/2212 VRB03KT P6SM OVC008
     FM211630 VRB03KT P6SM SCT010
     FM211800 19007KT P6SM SKC
     FM212300 30006KT P6SM SKC
     FM220300 VRB03KT P6SM SKC
     FM221100 VRB03KT P6SM SCT006=



000
FTUS46 KLOX 211300 AAA
TAFSBA
TAF AMD
KSBA 211358Z 2114/2212 VRB03KT P6SM VCFG FEW004
     FM211700 16006KT P6SM SKC
     FM212100 24006KT P6SM SKC
     FM220200 VRB03KT P6SM SKC=



000
FTUS46 KLOX 211300 AAB
TAFLAX
TAF AMD
KLAX 211357Z 2114/2218 VRB03KT 2SM BR VCFG FEW001 OVC006
     FM211600 VRB03KT 5SM HZ BKN008
     FM211700 26010KT P6SM SKC
     FM220500 VRB03KT P6SM SKC
     FM221300 VRB03KT P6SM OVC006
     FM221700 VRB03KT P6SM SCT008=



000
FTUS46 KLOX 211300 AAA
TAFLAX
TAF AMD
KLAX 211302Z 2113/2218 VRB03KT 4SM BR FEW001 BKN005
     FM211700 26010KT P6SM SKC
     FM220500 VRB03KT P6SM SKC
     FM221300 VRB03KT P6SM OVC006
     FM221700 VRB03KT P6SM SCT008=



000
FTUS46 KLOX 211100
TAFSBA
TAF
KSBA 211134Z 2112/2212 VRB03KT P6SM SCT004
      TEMPO 2112/2116 BKN004
     FM211700 16006KT P6SM SKC
     FM212100 24006KT P6SM SKC
     FM220200 VRB03KT P6SM SKC=



000
FTUS46 KLOX 211100
TAFSBP
TAF
KSBP 211134Z 2112/2212 VRB03KT P6SM SKC
     FM211900 31012KT P6SM SKC
     FM220200 VRB05KT P6SM SKC=



000
FTUS46 KLOX 211100
TAFPRB
TAF
KPRB 211134Z 2112/2212 VRB03KT P6SM SKC
     FM212300 30008KT P6SM SKC
     FM220400 VRB05KT P6SM SKC=



000
FTUS46 KLOX 211100
TAFSMX
TAF
KSMX 211134Z 2112/2212 VRB05KT P6SM SKC
     FM211800 30010KT P6SM SKC
     FM220300 VRB05KT P6SM SKC=



000
FTUS46 KLOX 211100
TAFBUR
TAF
KBUR 211132Z 2112/2212 VRB05KT P6SM SKC
     FM212000 17008KT P6SM SKC
     FM220300 VRB03KT P6SM SKC=



000
FTUS46 KLOX 211100
TAFPMD
TAF
KPMD 211132Z 2112/2212 VRB05KT P6SM SKC
     FM212100 24012KT P6SM SKC
     FM220400 22007KT P6SM SKC=



000
FTUS46 KLOX 211100
TAFWJF
TAF
KWJF 211132Z 2112/2212 VRB05KT P6SM SKC
     FM211800 25010KT P6SM SKC
     FM212100 24015G25KT P6SM SKC
     FM220400 21012KT P6SM SKC=



000
FTUS46 KLOX 211100
TAFLAX
TAF
KLAX 211132Z 2112/2218 VRB03KT P6SM FEW007
     FM211300 VRB03KT 2SM BR OVC006
     FM211500 VRB03KT 4SM BR BKN008
     FM211700 26010KT P6SM SKC
     FM220500 VRB03KT P6SM SKC
     FM221300 VRB03KT P6SM OVC006
     FM221700 VRB03KT P6SM SCT008=



000
FTUS46 KLOX 211100
TAFVNY
TAF
KVNY 211132Z 2112/2212 VRB03KT P6SM SKC
     FM212000 14008KT P6SM SKC
     FM220300 VRB03KT P6SM SKC=



000
FTUS46 KLOX 211100
TAFLGB
TAF
KLGB 211132Z 2112/2212 VRB03KT 6SM BR OVC004
     FM211600 19006KT P6SM SCT006
     FM212300 30006KT P6SM SKC
     FM220300 VRB03KT P6SM SKC
     FM221100 VRB03KT P6SM SCT006=



000
FTUS46 KLOX 211100 AAB
TAFLGB
TAF AMD
KLGB 211108Z 2111/2206 VRB03KT P6SM FEW005
      TEMPO 2111/2115 6SM BR SCT004 BKN011
     FM211700 19006KT P6SM SKC
     FM212300 30006KT P6SM SKC
     FM220300 VRB03KT P6SM SKC=



000
FTUS46 KLOX 211000 AAB
TAFSBA
TAF AMD
KSBA 211009Z 2110/2206 VRB03KT P6SM SCT004
      TEMPO 2110/2113 BKN004
     FM211700 16006KT P6SM SKC
     FM212100 24006KT P6SM SKC
     FM220200 VRB03KT P6SM SKC=



000
FTUS46 KLOX 211000 AAA
TAFLGB
TAF AMD
KLGB 211008Z 2110/2206 VRB03KT P6SM FEW005
      TEMPO 2113/2115 4SM BR BKN004
     FM211700 19006KT P6SM SKC
     FM212300 30006KT P6SM SKC
     FM220300 VRB03KT P6SM SKC=



000
FTUS46 KLOX 210800 AAA
TAFSBA
TAF AMD
KSBA 210900Z 2109/2206 VRB03KT P6SM BKN004
      TEMPO 2109/2112 SCT004
     FM211700 16006KT P6SM SKC
     FM212100 24006KT P6SM SKC
     FM220200 VRB03KT P6SM SKC=



000
FTUS46 KLOX 210700 AAA
TAFSMX
TAF AMD
KSMX 210725Z 2107/2206 VRB03KT P6SM SKC
     FM211800 30010KT P6SM SKC
     FM220300 VRB05KT P6SM SKC=



000
FTUS46 KLOX 210600 AAA
TAFPMD
TAF AMD
KPMD 210600Z 2106/2206 20006KT P6SM SKC
     FM211300 VRB03KT P6SM SKC
     FM212100 24012KT P6SM SKC
     FM220400 22007KT P6SM SKC=



    US Dept of Commerce
    National Oceanic and Atmospheric Administration
    National Weather Service
    1325 East West Highway
    Silver Spring, MD 20910
    Page Author: NWS Internet Services Team
Disclaimer
Information Quality
Credits
Glossary
Privacy Policy
Freedom of Information Act (FOIA)
About Us
Career Opportunities